Time;durP1;ratioP1;P1;durP2;ratioP2;P2;SDS_P1;SDS_P2;PMS_P1;PMS_P2;Temp;Humidity;BMP_temperature;BMP_pressure;BME280_temperature;BME280_humidity;BME280_pressure;Samples;Min_cycle;Max_cycle;Signal;HPM_P1;HPM_P2
2024/03/01 00:01:32;;;;;;;89.20;39.93;;;2.00;99.90;;;;;;6213951;23;20032;-72
2024/03/01 00:03:57;;;;;;;79.37;39.13;;;2.00;99.90;;;;;;6213435;23;20007;-72
2024/03/01 00:06:23;;;;;;;82.67;39.77;;;2.00;99.90;;;;;;6213452;23;20060;-72
2024/03/01 00:08:48;;;;;;;104.77;43.40;;;2.10;99.90;;;;;;6213091;23;20009;-72
2024/03/01 00:11:14;;;;;;;94.67;41.53;;;2.10;99.90;;;;;;6213377;23;20404;-72
2024/03/01 00:13:40;;;;;;;96.47;41.87;;;2.10;99.90;;;;;;6213355;23;20007;-72
2024/03/01 00:16:06;;;;;;;82.73;40.03;;;2.10;99.90;;;;;;6212903;23;19997;-72
2024/03/01 00:18:31;;;;;;;84.03;38.93;;;2.10;99.90;;;;;;6213241;23;20028;-72
2024/03/01 00:20:57;;;;;;;83.50;39.77;;;2.10;99.90;;;;;;6213508;23;20012;-72
2024/03/01 00:23:23;;;;;;;84.57;38.70;;;2.10;99.90;;;;;;6212864;23;19996;-72
2024/03/01 00:25:48;;;;;;;86.27;41.37;;;2.10;99.90;;;;;;6212702;23;20386;-72
2024/03/01 00:28:14;;;;;;;86.87;41.73;;;2.10;99.90;;;;;;6213037;23;20005;-72
2024/03/01 00:30:39;;;;;;;80.83;40.63;;;2.10;99.90;;;;;;6213777;23;19997;-72
2024/03/01 00:33:05;;;;;;;82.47;40.77;;;2.10;99.90;;;;;;6213183;23;20000;-72
2024/03/01 00:35:30;;;;;;;82.27;39.93;;;2.00;99.90;;;;;;6212297;23;20019;-72
2024/03/01 00:37:56;;;;;;;84.33;39.97;;;2.00;99.90;;;;;;6215084;23;20001;-71
2024/03/01 00:40:23;;;;;;;89.03;41.00;;;2.00;99.90;;;;;;6215161;23;20031;-72
2024/03/01 00:42:49;;;;;;;84.83;38.47;;;2.00;99.90;;;;;;6215276;23;20001;-71
2024/03/01 00:45:14;;;;;;;80.83;38.00;;;2.00;99.90;;;;;;6215139;23;20372;-72
2024/03/01 00:47:47;;;;;;;71.43;36.13;;;2.00;99.90;;;;;;6215139;23;20036;-72
2024/03/01 00:50:13;;;;;;;76.50;38.87;;;2.00;99.90;;;;;;6215586;23;20047;-72
2024/03/01 00:52:39;;;;;;;76.73;37.40;;;1.90;99.90;;;;;;6214952;23;20005;-72
2024/03/01 00:55:05;;;;;;;63.27;33.30;;;1.90;99.90;;;;;;6215065;23;19997;-72
2024/03/01 00:57:32;;;;;;;75.53;36.87;;;1.80;99.90;;;;;;6215326;23;20386;-72
2024/03/01 00:59:59;;;;;;;183.87;36.53;;;1.70;99.90;;;;;;6215467;23;20324;-72
2024/03/01 01:02:25;;;;;;;86.67;38.73;;;1.60;99.90;;;;;;6215621;23;20012;-71
2024/03/01 01:04:50;;;;;;;105.57;39.50;;;1.50;99.90;;;;;;6214766;23;20004;-72
2024/03/01 01:07:19;;;;;;;104.07;39.53;;;1.50;99.90;;;;;;6214752;23;19997;-71
2024/03/01 01:09:46;;;;;;;83.30;41.13;;;1.40;99.90;;;;;;6215473;23;20391;-71
2024/03/01 01:12:11;;;;;;;98.77;40.00;;;1.50;99.90;;;;;;6215110;23;20157;-71
2024/03/01 01:14:37;;;;;;;86.23;40.37;;;1.50;99.90;;;;;;6214698;23;20075;-71
2024/03/01 01:17:02;;;;;;;128.23;41.30;;;1.50;99.90;;;;;;6215173;23;20008;-72
2024/03/01 01:19:28;;;;;;;130.30;42.57;;;1.60;99.90;;;;;;6215022;23;20014;-72
2024/03/01 01:21:53;;;;;;;98.27;41.87;;;1.50;99.90;;;;;;6215096;23;20375;-72
2024/03/01 01:24:20;;;;;;;86.47;40.37;;;1.50;99.90;;;;;;6214258;23;20008;-72
2024/03/01 01:26:46;;;;;;;108.47;41.23;;;1.60;99.90;;;;;;6215315;23;20035;-72
2024/03/01 01:29:11;;;;;;;91.00;40.93;;;1.60;99.90;;;;;;6213298;23;20009;-72
2024/03/01 01:31:37;;;;;;;117.30;39.97;;;1.60;99.90;;;;;;6215089;23;20008;-72
2024/03/01 01:34:03;;;;;;;91.43;41.07;;;1.60;99.90;;;;;;6211597;23;20457;-71
2024/03/01 01:36:29;;;;;;;183.00;43.47;;;1.60;99.90;;;;;;6213778;23;20000;-71
2024/03/01 01:38:54;;;;;;;203.17;41.60;;;1.60;99.90;;;;;;6214369;23;20050;-72
2024/03/01 01:41:20;;;;;;;126.77;40.80;;;1.60;99.90;;;;;;6214609;23;20072;-71
2024/03/01 01:43:46;;;;;;;312.97;39.73;;;1.70;99.90;;;;;;6214528;23;20083;-72
2024/03/01 01:46:15;;;;;;;71.07;39.33;;;1.70;99.90;;;;;;6214625;23;20028;-72
2024/03/01 01:48:43;;;;;;;161.60;42.00;;;1.60;99.90;;;;;;6213269;23;20571;-71
2024/03/01 01:51:10;;;;;;;118.23;40.60;;;1.60;99.90;;;;;;6213994;23;19997;-71
2024/03/01 01:53:35;;;;;;;176.07;40.10;;;1.60;99.90;;;;;;6214491;23;20497;-71
2024/03/01 01:56:01;;;;;;;165.43;41.00;;;1.70;99.90;;;;;;6214480;23;20004;-71
2024/03/01 01:58:28;;;;;;;89.77;41.20;;;1.60;99.90;;;;;;6214624;23;20008;-72
2024/03/01 02:00:55;;;;;;;90.83;41.07;;;1.70;99.90;;;;;;6214655;23;20011;-71
2024/03/01 02:03:21;;;;;;;92.83;41.03;;;1.70;99.90;;;;;;6214348;23;19997;-72
2024/03/01 02:05:48;;;;;;;91.67;40.50;;;1.70;99.90;;;;;;6213971;23;20058;-72
2024/03/01 02:08:13;;;;;;;89.83;40.67;;;1.70;99.90;;;;;;6213782;23;20381;-72
2024/03/01 02:10:39;;;;;;;90.17;38.00;;;1.80;99.90;;;;;;6214170;23;20024;-71
2024/03/01 02:13:04;;;;;;;79.97;39.73;;;1.80;99.90;;;;;;6213613;23;19997;-72
2024/03/01 02:15:30;;;;;;;81.53;38.63;;;1.80;99.90;;;;;;6213333;23;20001;-72
2024/03/01 02:17:57;;;;;;;75.37;37.90;;;1.80;99.90;;;;;;6213977;23;20023;-72
2024/03/01 02:20:25;;;;;;;74.90;37.67;;;1.80;99.90;;;;;;6215077;23;20371;-71
2024/03/01 02:22:57;;;;;;;66.37;36.97;;;1.80;99.90;;;;;;6214172;23;20127;-71
2024/03/01 02:25:23;;;;;;;80.23;38.87;;;1.80;99.90;;;;;;6213200;23;20031;-72
2024/03/01 02:27:49;;;;;;;95.07;37.10;;;1.90;99.90;;;;;;6213789;23;20016;-72
2024/03/01 02:30:15;;;;;;;124.17;38.50;;;1.80;99.90;;;;;;6214480;23;19997;-72
2024/03/01 02:32:41;;;;;;;104.10;37.77;;;1.80;99.90;;;;;;6213239;23;20023;-71
2024/03/01 02:35:07;;;;;;;117.73;38.37;;;1.80;99.90;;;;;;6213290;23;19997;-71
2024/03/01 02:37:32;;;;;;;134.13;37.03;;;1.80;99.90;;;;;;6213723;23;20007;-72
2024/03/01 02:39:58;;;;;;;120.97;39.73;;;1.80;99.90;;;;;;6214301;23;20020;-72
2024/03/01 02:42:23;;;;;;;91.10;41.07;;;1.80;99.90;;;;;;6213702;23;20071;-72
2024/03/01 02:44:49;;;;;;;152.00;40.40;;;1.80;99.90;;;;;;6213587;23;20004;-71
2024/03/01 02:47:14;;;;;;;110.23;41.43;;;1.80;99.90;;;;;;6214403;23;20375;-72
2024/03/01 02:49:40;;;;;;;79.97;39.27;;;1.80;99.90;;;;;;6214215;23;20009;-71
2024/03/01 02:52:07;;;;;;;132.97;40.43;;;1.80;99.90;;;;;;6214301;23;20084;-72
2024/03/01 02:54:33;;;;;;;81.07;40.53;;;1.90;99.90;;;;;;6213951;23;20319;-72
2024/03/01 02:56:58;;;;;;;84.73;39.53;;;1.90;99.90;;;;;;6214028;23;20011;-71
2024/03/01 02:59:24;;;;;;;86.70;41.50;;;1.90;99.90;;;;;;6214184;23;19997;-72
2024/03/01 03:01:50;;;;;;;85.50;41.63;;;2.00;99.90;;;;;;6214232;23;19999;-72
2024/03/01 03:04:16;;;;;;;86.03;40.50;;;2.00;99.90;;;;;;6213286;23;20005;-72
2024/03/01 03:06:41;;;;;;;93.20;41.70;;;2.00;99.90;;;;;;6214115;23;20387;-72
2024/03/01 03:09:09;;;;;;;87.37;42.77;;;2.10;99.90;;;;;;6213934;23;20012;-72
2024/03/01 03:11:35;;;;;;;86.90;40.40;;;2.10;99.90;;;;;;6214078;23;19996;-72
2024/03/01 03:14:02;;;;;;;100.80;45.00;;;2.10;99.90;;;;;;6213775;23;20039;-72
2024/03/01 03:16:28;;;;;;;82.40;40.03;;;2.10;99.90;;;;;;6213413;23;20633;-72
2024/03/01 03:18:53;;;;;;;90.87;41.20;;;2.20;99.90;;;;;;6213634;23;20062;-72
2024/03/01 03:21:19;;;;;;;92.73;41.73;;;2.20;99.90;;;;;;6213854;23;20027;-72
2024/03/01 03:23:45;;;;;;;95.53;43.27;;;2.20;99.90;;;;;;6214059;23;20001;-71
2024/03/01 03:26:11;;;;;;;96.80;42.90;;;2.20;99.90;;;;;;6213866;23;20004;-72
2024/03/01 03:28:37;;;;;;;109.50;41.90;;;2.20;99.90;;;;;;6213835;23;20332;-71
2024/03/01 03:31:02;;;;;;;134.47;39.90;;;2.20;99.90;;;;;;6212556;23;20000;-72
2024/03/01 03:33:28;;;;;;;105.73;42.17;;;2.20;99.90;;;;;;6212667;23;20000;-72
2024/03/01 03:35:53;;;;;;;105.67;41.73;;;2.20;99.90;;;;;;6212860;23;20423;-72
2024/03/01 03:38:19;;;;;;;103.87;43.47;;;2.20;99.90;;;;;;6213775;23;20316;-72
2024/03/01 03:40:44;;;;;;;137.00;46.03;;;2.20;99.90;;;;;;6212918;23;20000;-71
2024/03/01 03:43:10;;;;;;;140.53;47.93;;;2.20;99.90;;;;;;6213416;23;20335;-72
2024/03/01 03:45:36;;;;;;;142.73;48.73;;;2.20;99.90;;;;;;6212604;23;20004;-72
2024/03/01 03:48:01;;;;;;;131.27;48.53;;;2.20;99.90;;;;;;6212632;23;20005;-72
2024/03/01 03:50:27;;;;;;;133.87;47.60;;;2.30;99.90;;;;;;6213479;23;20010;-72
2024/03/01 03:52:53;;;;;;;145.00;44.73;;;2.30;99.90;;;;;;6213056;23;20020;-72
2024/03/01 03:55:18;;;;;;;115.20;48.63;;;2.30;99.90;;;;;;6212363;23;20028;-72
2024/03/01 03:57:44;;;;;;;120.10;47.90;;;2.30;99.90;;;;;;6212958;23;20678;-72
2024/03/01 04:00:14;;;;;;;189.27;49.00;;;2.30;99.90;;;;;;6213159;23;20024;-72
2024/03/01 04:02:40;;;;;;;210.20;46.60;;;2.30;99.90;;;;;;6213007;23;20505;-72
2024/03/01 04:05:06;;;;;;;148.27;47.80;;;2.40;99.90;;;;;;6212676;23;20000;-72
2024/03/01 04:07:32;;;;;;;140.80;47.77;;;2.40;99.90;;;;;;6212406;23;20439;-72
2024/03/01 04:09:58;;;;;;;127.47;46.80;;;2.40;99.90;;;;;;6212841;23;20001;-71
2024/03/01 04:12:23;;;;;;;122.67;46.17;;;2.40;99.90;;;;;;6212741;23;20004;-71
2024/03/01 04:14:49;;;;;;;243.13;45.70;;;2.40;99.90;;;;;;6212183;23;20009;-72
2024/03/01 04:17:14;;;;;;;202.43;47.60;;;2.50;99.90;;;;;;6212412;23;20063;-72
2024/03/01 04:19:40;;;;;;;142.17;48.10;;;2.50;99.90;;;;;;6213012;23;20024;-72
2024/03/01 04:22:05;;;;;;;95.33;45.33;;;2.50;99.90;;;;;;6212935;23;20011;-71
2024/03/01 04:24:31;;;;;;;110.00;48.00;;;2.60;99.90;;;;;;6212524;23;20015;-72
2024/03/01 04:26:57;;;;;;;208.37;48.87;;;2.60;99.90;;;;;;6213111;23;20090;-71
2024/03/01 04:29:22;;;;;;;155.23;47.47;;;2.60;99.90;;;;;;6212548;23;20016;-72
2024/03/01 04:31:48;;;;;;;264.53;49.13;;;2.70;99.90;;;;;;6213020;23;19997;-72
2024/03/01 04:34:18;;;;;;;98.33;47.07;;;2.70;99.90;;;;;;6211171;23;20004;-71
2024/03/01 04:36:43;;;;;;;208.70;49.93;;;2.70;99.90;;;;;;6212676;23;20000;-71
2024/03/01 04:39:09;;;;;;;171.30;46.57;;;2.70;99.90;;;;;;6213970;23;20055;-71
2024/03/01 04:41:38;;;;;;;141.23;48.70;;;2.70;99.90;;;;;;6213034;23;20028;-72
2024/03/01 04:44:04;;;;;;;156.10;49.50;;;2.80;99.90;;;;;;6212624;23;20008;-71
2024/03/01 04:46:29;;;;;;;154.67;52.20;;;2.80;99.90;;;;;;6212700;23;20465;-72
2024/03/01 04:48:55;;;;;;;104.80;50.07;;;2.80;99.90;;;;;;6212376;23;20005;-72
2024/03/01 04:51:22;;;;;;;143.53;50.17;;;2.80;99.90;;;;;;6213210;23;20518;-72
2024/03/01 04:53:48;;;;;;;138.77;52.30;;;2.80;99.90;;;;;;6212750;23;20072;-72
2024/03/01 04:56:13;;;;;;;93.37;49.93;;;2.90;99.90;;;;;;6212225;23;20468;-71
2024/03/01 04:58:39;;;;;;;108.33;50.40;;;2.90;99.90;;;;;;6212325;23;20023;-72
2024/03/01 05:01:05;;;;;;;181.90;51.67;;;2.90;99.90;;;;;;6212983;23;20000;-72
2024/03/01 05:03:31;;;;;;;174.57;51.53;;;2.90;99.90;;;;;;6213151;23;19997;-72
2024/03/01 05:05:57;;;;;;;177.80;50.43;;;2.90;99.90;;;;;;6211330;23;20450;-72
2024/03/01 05:08:24;;;;;;;95.13;49.60;;;3.00;99.90;;;;;;6212326;23;20434;-71
2024/03/01 05:10:49;;;;;;;119.90;48.17;;;3.00;99.90;;;;;;6212688;23;20001;-72
2024/03/01 05:13:19;;;;;;;102.33;50.50;;;3.00;99.90;;;;;;6212939;23;20084;-72
2024/03/01 05:15:46;;;;;;;98.83;48.83;;;3.00;99.90;;;;;;6210884;23;20032;-72
2024/03/01 05:18:11;;;;;;;109.33;51.73;;;3.00;99.90;;;;;;6212957;23;20024;-71
2024/03/01 05:20:38;;;;;;;113.03;50.50;;;3.10;99.90;;;;;;6212445;23;20078;-72
2024/03/01 05:23:03;;;;;;;109.37;50.60;;;3.10;99.90;;;;;;6214419;23;20012;-72
2024/03/01 05:25:29;;;;;;;109.83;51.03;;;3.10;99.90;;;;;;6213580;23;20000;-72
2024/03/01 05:27:55;;;;;;;104.67;50.53;;;3.10;99.90;;;;;;6214071;23;20016;-71
2024/03/01 05:30:23;;;;;;;105.30;51.60;;;3.00;99.90;;;;;;6214018;23;20376;-72
2024/03/01 05:32:52;;;;;;;103.30;49.93;;;3.00;99.90;;;;;;6213575;23;20380;-73
2024/03/01 05:35:21;;;;;;;100.10;50.80;;;3.10;99.90;;;;;;6213299;23;20423;-72
2024/03/01 05:37:47;;;;;;;98.80;49.70;;;3.10;99.90;;;;;;6214191;23;20392;-73
2024/03/01 05:40:16;;;;;;;101.97;48.93;;;3.10;99.90;;;;;;6214388;23;20031;-72
2024/03/01 05:42:43;;;;;;;91.13;46.17;;;3.10;99.90;;;;;;6213942;23;20486;-72
2024/03/01 05:45:10;;;;;;;85.30;46.03;;;3.20;99.90;;;;;;6213613;23;19997;-72
2024/03/01 05:47:36;;;;;;;89.77;45.60;;;3.20;99.90;;;;;;6213862;23;20424;-72
2024/03/01 05:50:07;;;;;;;84.50;44.70;;;3.20;99.90;;;;;;6213279;23;19997;-72
2024/03/01 05:52:36;;;;;;;88.27;44.30;;;3.20;99.90;;;;;;6214012;23;20062;-72
2024/03/01 05:55:03;;;;;;;86.07;44.30;;;3.20;99.90;;;;;;6213364;23;20494;-72
2024/03/01 05:57:32;;;;;;;84.13;43.87;;;3.20;99.90;;;;;;6213499;23;20004;-72
2024/03/01 05:59:58;;;;;;;83.10;41.97;;;3.30;99.90;;;;;;6214854;23;20031;-72
2024/03/01 06:02:24;;;;;;;81.33;42.40;;;3.30;99.90;;;;;;6212207;23;20000;-73
2024/03/01 06:04:50;;;;;;;76.23;41.13;;;3.30;99.90;;;;;;6214251;23;20013;-72
2024/03/01 06:07:18;;;;;;;79.47;40.93;;;3.30;99.90;;;;;;6214280;23;20008;-72
2024/03/01 06:09:44;;;;;;;74.63;40.17;;;3.30;99.90;;;;;;6214445;23;20005;-72
2024/03/01 06:12:10;;;;;;;76.37;40.43;;;3.30;99.90;;;;;;6213960;23;20502;-72
2024/03/01 06:14:36;;;;;;;75.40;39.90;;;3.30;99.90;;;;;;6211766;23;20020;-71
2024/03/01 06:17:02;;;;;;;75.53;38.70;;;3.30;99.90;;;;;;6213414;23;20080;-72
2024/03/01 06:19:28;;;;;;;73.93;39.37;;;3.30;99.90;;;;;;6214188;23;20008;-73
2024/03/01 06:21:57;;;;;;;81.80;40.37;;;3.30;99.90;;;;;;6213645;23;20005;-72
2024/03/01 06:24:22;;;;;;;73.50;37.73;;;3.30;99.90;;;;;;6213314;23;20005;-72
2024/03/01 06:26:49;;;;;;;73.33;38.80;;;3.30;99.90;;;;;;6213740;23;20011;-72
2024/03/01 06:29:18;;;;;;;73.30;38.47;;;3.30;99.90;;;;;;6213934;23;20032;-72
2024/03/01 06:31:43;;;;;;;74.90;39.33;;;3.20;99.90;;;;;;6213317;23;20327;-73
2024/03/01 06:34:09;;;;;;;67.70;37.73;;;3.20;99.90;;;;;;6212699;23;20068;-72
2024/03/01 06:36:34;;;;;;;74.93;38.87;;;3.20;99.90;;;;;;6213166;23;20001;-72
2024/03/01 06:39:00;;;;;;;70.17;37.43;;;3.20;99.90;;;;;;6213253;23;20005;-72
2024/03/01 06:41:26;;;;;;;73.20;37.17;;;3.20;99.90;;;;;;6211108;23;20004;-72
2024/03/01 06:43:52;;;;;;;65.30;36.30;;;3.20;99.90;;;;;;6212384;23;20008;-72
2024/03/01 06:46:17;;;;;;;66.13;36.77;;;3.20;99.90;;;;;;6212153;23;20001;-73
2024/03/01 06:48:43;;;;;;;64.20;35.67;;;3.20;99.90;;;;;;6211764;23;20009;-72
2024/03/01 06:51:08;;;;;;;66.20;37.37;;;3.20;99.90;;;;;;6213182;23;20005;-73
2024/03/01 06:53:34;;;;;;;67.17;37.20;;;3.30;99.90;;;;;;6213047;23;20447;-72
2024/03/01 06:56:02;;;;;;;68.73;36.47;;;3.30;99.90;;;;;;6213053;23;20001;-72
2024/03/01 06:58:28;;;;;;;73.33;36.67;;;3.30;99.90;;;;;;6213485;23;20012;-72
2024/03/01 07:00:53;;;;;;;70.47;36.40;;;3.30;99.90;;;;;;6213413;23;19997;-72
2024/03/01 07:03:19;;;;;;;58.20;35.13;;;3.30;99.90;;;;;;6213222;23;20011;-72
2024/03/01 07:05:44;;;;;;;66.27;35.67;;;3.40;99.90;;;;;;6211990;23;20416;-72
2024/03/01 07:08:10;;;;;;;67.43;36.77;;;3.40;99.90;;;;;;6212641;23;20009;-73
2024/03/01 07:10:35;;;;;;;62.70;35.57;;;3.40;99.90;;;;;;6211796;23;20000;-73
2024/03/01 07:13:01;;;;;;;61.60;35.03;;;3.50;99.90;;;;;;6210960;23;20027;-72
2024/03/01 07:15:29;;;;;;;65.20;37.20;;;3.50;99.90;;;;;;6211832;23;20103;-73
2024/03/01 07:17:56;;;;;;;62.00;35.10;;;3.50;99.90;;;;;;6211808;23;20319;-73
2024/03/01 07:20:22;;;;;;;61.17;34.87;;;3.60;99.90;;;;;;6213941;23;20008;-73
2024/03/01 07:22:49;;;;;;;67.57;35.13;;;3.60;99.90;;;;;;6211572;23;20016;-72
2024/03/01 07:25:14;;;;;;;61.43;34.07;;;3.70;99.90;;;;;;6211982;23;20001;-74
2024/03/01 07:27:41;;;;;;;72.00;34.90;;;3.70;99.90;;;;;;6211356;23;20017;-72
2024/03/01 07:30:07;;;;;;;90.93;36.37;;;3.70;99.90;;;;;;6212698;23;20020;-74
2024/03/01 07:32:35;;;;;;;74.63;35.17;;;3.80;99.90;;;;;;6213034;23;19997;-73
2024/03/01 07:35:03;;;;;;;71.50;33.87;;;3.80;99.90;;;;;;6212340;23;20432;-75
2024/03/01 07:37:29;;;;;;;63.30;32.67;;;3.80;99.90;;;;;;6212605;23;20103;-74
2024/03/01 07:39:55;;;;;;;67.33;36.13;;;3.90;99.90;;;;;;6212793;23;20046;-73
2024/03/01 07:42:21;;;;;;;66.13;33.90;;;3.90;99.90;;;;;;6212192;23;20531;-74
2024/03/01 07:44:47;;;;;;;68.37;35.60;;;4.00;99.90;;;;;;6212331;23;20012;-74
2024/03/01 07:47:12;;;;;;;61.20;33.63;;;4.00;99.90;;;;;;6212455;23;20005;-74
2024/03/01 07:49:38;;;;;;;63.13;33.13;;;4.10;99.90;;;;;;6212535;23;20432;-74
2024/03/01 07:52:04;;;;;;;64.10;34.60;;;4.10;99.90;;;;;;6212773;23;20431;-74
2024/03/01 07:54:29;;;;;;;66.97;35.10;;;4.20;99.90;;;;;;6211773;23;20009;-74
2024/03/01 07:56:55;;;;;;;66.60;35.17;;;4.20;99.90;;;;;;6212357;23;20027;-74
2024/03/01 07:59:20;;;;;;;62.33;34.63;;;4.30;99.90;;;;;;6212466;23;20317;-74
2024/03/01 08:01:47;;;;;;;68.77;35.87;;;4.30;99.90;;;;;;6211565;23;20054;-74
2024/03/01 08:04:13;;;;;;;66.20;35.83;;;4.40;99.90;;;;;;6212108;23;20008;-74
2024/03/01 08:06:39;;;;;;;67.53;35.17;;;4.50;99.90;;;;;;6212623;23;20003;-74
2024/03/01 08:09:07;;;;;;;68.47;35.37;;;4.60;99.90;;;;;;6212746;23;20356;-74
2024/03/01 08:11:44;;;;;;;65.17;34.77;;;4.60;99.90;;;;;;6212684;23;19997;-75
2024/03/01 08:14:33;;;;;;;71.00;35.63;;;4.60;99.90;;;;;;6212520;23;20054;-74
2024/03/01 08:16:59;;;;;;;64.07;34.37;;;4.70;99.90;;;;;;6212450;23;20062;-74
2024/03/01 08:19:35;;;;;;;65.70;34.63;;;4.80;99.90;;;;;;6212996;23;20004;-74
2024/03/01 08:22:16;;;;;;;59.27;33.70;;;4.90;99.90;;;;;;6212891;23;20024;-74
2024/03/01 08:24:46;;;;;;;66.30;35.00;;;5.00;99.90;;;;;;6211722;23;20001;-74
2024/03/01 08:27:15;;;;;;;67.63;36.27;;;5.10;99.90;;;;;;6212437;23;20016;-74
2024/03/01 08:29:42;;;;;;;68.50;35.67;;;5.10;99.90;;;;;;6210802;23;20469;-74
2024/03/01 08:32:28;;;;;;;62.60;34.33;;;5.20;99.90;;;;;;6212583;23;20012;-74
2024/03/01 08:34:57;;;;;;;68.10;33.70;;;5.30;99.90;;;;;;6209901;23;20072;-74
2024/03/01 08:37:24;;;;;;;66.27;36.13;;;5.40;99.90;;;;;;6211958;23;20020;-74
2024/03/01 08:39:51;;;;;;;62.10;34.83;;;5.50;99.90;;;;;;6212657;23;20009;-74
2024/03/01 08:42:17;;;;;;;67.30;36.43;;;5.50;99.90;;;;;;6212261;23;20004;-74
2024/03/01 08:44:59;;;;;;;63.77;34.10;;;5.60;99.90;;;;;;6212092;23;20008;-74
2024/03/01 08:47:34;;;;;;;64.23;34.43;;;5.70;99.90;;;;;;6212144;23;20060;-73
2024/03/01 08:50:06;;;;;;;;;;;5.80;99.90;;;;;;6213374;23;20004;-73
2024/03/01 08:52:37;;;;;;;62.23;35.70;;;5.90;99.90;;;;;;6212880;23;19926;-73
2024/03/01 08:55:26;;;;;;;68.10;35.03;;;6.00;99.90;;;;;;6212023;23;20001;-73
2024/03/01 08:57:55;;;;;;;64.07;35.47;;;6.10;99.90;;;;;;6202650;23;20008;-73
2024/03/01 09:00:26;;;;;;;64.70;36.50;;;6.20;99.90;;;;;;6214688;23;20009;-73
2024/03/01 09:02:52;;;;;;;69.00;35.50;;;6.40;99.90;;;;;;6214433;23;20004;-73
2024/03/01 09:05:21;;;;;;;57.60;32.50;;;6.40;99.90;;;;;;6214074;23;20004;-73
2024/03/01 09:07:47;;;;;;;60.90;34.87;;;6.50;99.90;;;;;;6214571;23;20076;-73
2024/03/01 09:10:16;;;;;;;62.17;34.40;;;6.70;99.90;;;;;;6215076;23;20004;-72
2024/03/01 09:12:46;;;;;;;59.60;34.43;;;6.80;99.90;;;;;;6212110;23;20000;-73
2024/03/01 09:15:15;;;;;;;57.93;34.43;;;6.80;99.90;;;;;;6214010;23;20324;-73
2024/03/01 09:17:41;;;;;;;58.93;35.67;;;6.90;99.90;;;;;;6213621;23;20016;-73
2024/03/01 09:20:19;;;;;;;67.13;35.87;;;7.00;99.90;;;;;;6214209;23;20015;-73
2024/03/01 09:22:45;;;;;;;59.70;34.17;;;7.20;99.90;;;;;;6214316;23;20001;-73
2024/03/01 09:25:49;;;;;;;70.67;35.07;;;7.20;99.90;;;;;;6213546;23;20066;-73
2024/03/01 09:28:16;;;;;;;61.03;34.27;;;7.40;99.90;;;;;;6214236;23;20008;-73
2024/03/01 09:30:45;;;;;;;58.47;33.90;;;7.50;99.90;;;;;;6214386;23;20012;-73
2024/03/01 09:33:14;;;;;;;62.87;33.47;;;7.50;99.90;;;;;;6214275;23;20013;-73
2024/03/01 09:35:40;;;;;;;60.27;34.03;;;7.60;99.90;;;;;;6213757;23;20004;-74
2024/03/01 09:38:08;;;;;;;56.90;32.87;;;7.60;99.90;;;;;;6214893;23;20439;-73
2024/03/01 09:40:33;;;;;;;55.27;32.53;;;7.70;99.90;;;;;;6214755;23;20009;-74
2024/03/01 09:43:11;;;;;;;58.60;33.83;;;7.70;99.90;;;;;;6214096;23;20012;-73
2024/03/01 09:45:47;;;;;;;58.97;33.20;;;7.80;99.90;;;;;;6213977;23;20579;-73
2024/03/01 09:48:19;;;;;;;63.93;34.73;;;7.90;99.90;;;;;;6214388;23;20009;-72
2024/03/01 09:50:51;;;;;;;60.53;34.17;;;8.00;99.90;;;;;;6213938;23;20000;-73
2024/03/01 09:53:16;;;;;;;62.33;33.90;;;8.00;99.90;;;;;;6212955;23;20003;-73
2024/03/01 09:56:01;;;;;;;66.40;34.03;;;8.00;99.90;;;;;;6213382;23;20004;-73
2024/03/01 09:58:55;;;;;;;65.28;35.22;;;8.10;99.90;;;;;;6214187;23;20005;-74
2024/03/01 10:01:36;;;;;;;59.07;33.77;;;8.20;99.90;;;;;;6213177;23;20430;-73
2024/03/01 10:04:14;;;;;;;62.07;34.03;;;8.20;99.90;;;;;;6213759;23;20020;-73
2024/03/01 10:07:01;;;;;;;63.73;35.67;;;8.30;99.90;;;;;;6213762;23;20048;-73
2024/03/01 10:09:58;;;;;;;61.17;34.50;;;8.30;99.90;;;;;;6211538;23;20064;-73
2024/03/01 10:12:42;;;;;;;61.27;33.77;;;8.50;99.90;;;;;;6213197;23;20001;-73
2024/03/01 10:15:37;;;;;;;63.73;36.07;;;8.60;99.90;;;;;;6212389;23;20004;-73
2024/03/01 10:18:24;;;;;;;54.70;33.17;;;8.70;99.90;;;;;;6213566;23;20415;-73
2024/03/01 10:21:03;;;;;;;58.63;34.70;;;8.80;99.90;;;;;;6212671;23;20000;-73
2024/03/01 10:23:47;;;;;;;57.37;32.67;;;8.90;99.90;;;;;;6213579;23;20009;-73
2024/03/01 10:26:27;;;;;;;54.97;32.73;;;8.90;99.90;;;;;;6186495;23;20083;-73
2024/03/01 10:29:04;;;;;;;60.87;32.93;;;9.00;99.90;;;;;;6212957;23;20036;-74
2024/03/01 10:32:00;;;;;;;53.63;32.17;;;9.10;99.90;;;;;;6212932;23;20316;-73
2024/03/01 10:34:40;;;;;;;;;;;9.10;99.90;;;;;;6213753;23;20581;-73
2024/03/01 10:37:29;;;;;;;55.27;31.97;;;9.10;99.90;;;;;;6213190;23;19908;-73
2024/03/01 10:40:17;;;;;;;52.73;32.13;;;9.10;99.90;;;;;;6212474;23;20000;-73
2024/03/01 10:42:48;;;;;;;56.77;32.47;;;9.10;99.90;;;;;;6213111;23;20313;-72
2024/03/01 10:45:29;;;;;;;55.57;31.83;;;9.10;99.90;;;;;;6213045;23;20004;-73
2024/03/01 10:47:55;;;;;;;59.70;33.53;;;9.10;99.90;;;;;;6213161;23;20008;-72
2024/03/01 10:50:26;;;;;;;53.00;30.93;;;9.10;99.90;;;;;;6211674;23;19996;-72
2024/03/01 10:53:09;;;;;;;55.47;30.27;;;9.20;99.90;;;;;;6213046;23;20005;-73
2024/03/01 10:55:40;;;;;;;49.97;29.57;;;9.10;99.90;;;;;;6212852;23;20116;-72
2024/03/01 10:58:40;;;;;;;48.00;26.43;;;9.10;99.90;;;;;;6213277;23;20431;-73
2024/03/01 11:01:24;;;;;;;48.37;28.23;;;9.10;99.90;;;;;;6197194;23;20019;-72
2024/03/01 11:04:15;;;;;;;47.00;27.93;;;9.00;99.90;;;;;;6213304;23;20008;-73
2024/03/01 11:06:59;;;;;;;49.23;28.87;;;9.00;99.90;;;;;;6197481;23;20334;-73
2024/03/01 11:09:45;;;;;;;46.77;27.07;;;8.90;99.90;;;;;;6214193;23;20013;-73
2024/03/01 11:12:32;;;;;;;46.50;27.87;;;8.80;99.90;;;;;;6213451;23;20035;-73
2024/03/01 11:15:09;;;;;;;47.03;27.03;;;8.80;99.90;;;;;;6212964;23;20107;-73
2024/03/01 11:17:37;;;;;;;43.70;24.53;;;8.80;99.90;;;;;;6213536;23;20400;-72
2024/03/01 11:20:10;;;;;;;39.43;22.73;;;8.80;99.90;;;;;;6213658;23;20000;-73
2024/03/01 11:22:41;;;;;;;38.20;21.77;;;8.80;99.90;;;;;;6213947;23;19997;-73
2024/03/01 11:25:19;;;;;;;39.73;24.07;;;8.90;99.90;;;;;;6212933;23;20004;-73
2024/03/01 11:28:03;;;;;;;42.83;21.83;;;8.90;99.90;;;;;;6213819;23;20036;-73
2024/03/01 11:30:32;;;;;;;33.37;20.40;;;8.90;99.90;;;;;;6213606;23;20012;-73
2024/03/01 11:33:01;;;;;;;37.70;20.47;;;8.90;99.90;;;;;;6213284;23;20004;-72
2024/03/01 11:35:44;;;;;;;38.17;21.60;;;9.00;99.90;;;;;;6212920;23;20031;-73
2024/03/01 11:38:35;;;;;;;32.93;19.80;;;9.00;99.90;;;;;;6213971;23;20009;-73
2024/03/01 11:41:22;;;;;;;34.87;20.03;;;9.10;99.90;;;;;;6212135;23;20069;-73
2024/03/01 11:44:26;;;;;;;33.87;20.17;;;9.10;99.90;;;;;;6212790;23;20000;-72
2024/03/01 11:47:26;;;;;;;35.27;20.13;;;9.10;99.90;;;;;;6213039;23;20431;-72
2024/03/01 11:50:26;;;;;;;43.73;22.07;;;9.20;99.90;;;;;;6211476;23;20400;-73
2024/03/01 11:52:58;;;;;;;37.90;20.53;;;9.10;99.90;;;;;;6210798;23;20122;-73
2024/03/01 11:55:55;;;;;;;35.07;19.33;;;9.00;99.90;;;;;;6212500;23;20084;-72
2024/03/01 11:58:29;;;;;;;27.73;16.23;;;9.00;99.90;;;;;;6213061;23;20351;-73
2024/03/01 12:01:23;;;;;;;27.40;15.27;;;9.00;99.90;;;;;;6212803;23;20009;-73
2024/03/01 12:04:01;;;;;;;26.87;15.20;;;9.00;99.90;;;;;;6212892;23;20027;-73
2024/03/01 12:07:02;;;;;;;27.87;14.93;;;8.90;99.90;;;;;;6212219;23;20012;-73
2024/03/01 12:09:50;;;;;;;24.87;14.73;;;8.90;99.90;;;;;;6212478;23;20009;-72
2024/03/01 12:12:29;;;;;;;30.03;15.50;;;8.80;99.90;;;;;;6212643;23;20000;-73
2024/03/01 12:15:02;;;;;;;28.90;16.00;;;8.90;99.90;;;;;;6211949;23;20411;-73
2024/03/01 12:18:05;;;;;;;26.50;15.87;;;8.90;99.90;;;;;;6211856;23;20040;-72
2024/03/01 12:20:36;;;;;;;27.90;15.90;;;8.80;99.90;;;;;;6212914;23;20027;-73
2024/03/01 12:23:13;;;;;;;27.47;15.53;;;8.80;99.90;;;;;;6213112;23;20070;-72
2024/03/01 12:25:39;;;;;;;22.70;14.87;;;8.90;99.90;;;;;;6212467;23;20008;-72
2024/03/01 12:28:26;;;;;;;26.93;14.70;;;9.00;99.90;;;;;;6212671;23;20012;-72
2024/03/01 12:31:02;;;;;;;27.67;14.73;;;9.00;99.90;;;;;;6212298;23;20001;-73
2024/03/01 12:33:56;;;;;;;;;;;9.10;99.90;;;;;;6213329;23;20047;-73
2024/03/01 12:36:41;;;;;;;24.10;14.63;;;9.00;99.90;;;;;;6192217;23;19904;-72
2024/03/01 12:39:10;;;;;;;24.37;15.03;;;9.00;99.90;;;;;;6212979;23;20096;-73
2024/03/01 12:41:39;;;;;;;26.97;15.17;;;9.00;99.90;;;;;;6212179;23;20005;-72
2024/03/01 12:44:41;;;;;;;31.00;17.00;;;8.90;99.90;;;;;;6211595;23;20471;-72
2024/03/01 12:47:30;;;;;;;23.60;14.97;;;8.90;99.90;;;;;;6212463;23;20019;-73
2024/03/01 12:50:06;;;;;;;26.93;14.53;;;9.00;99.90;;;;;;6196070;23;20335;-73
2024/03/01 12:52:55;;;;;;;23.83;14.17;;;8.90;99.90;;;;;;6212209;23;20032;-73